<?xml version="1.0" encoding="UTF-8" standalone="no" ?>
<gpx xmlns="http://www.topografix.com/GPX/1/1" xmlns:xsi="http://www.w3.org/2001/XMLSchema-instance" xsi:schemaLocation="http://www.topografix.com/GPX/1/1 http://www.topografix.com/GPX/1/1/gpx.xsd" version="1.1" creator="VisuGPX - https://www.visugpx.com">
  <metadata>
    <name>Etape 2 Férel - Les Moûtiers</name>
    <desc><![CDATA[Randonnée vélo Rennes - Hendaye, empruntant la Vélodyssée à partir de Saint-Brevin-Les-Pins. ]]></desc>
  </metadata>
  <trk>
    <name><![CDATA[Sequence 5]]></name>
    <trkseg>
      <trkpt lat="47.44528" lon="-2.24495">
        <ele>3</ele>
        <time>2016-07-22T05:22:31Z</time>
      </trkpt>
      <trkpt lat="47.44518" lon="-2.24509">
        <ele>2</ele>
        <time>2016-07-22T05:22:36Z</time>
      </trkpt>
      <trkpt lat="47.44507" lon="-2.24529">
        <ele>2</ele>
        <time>2016-07-22T05:22:41Z</time>
      </trkpt>
      <trkpt lat="47.44502" lon="-2.24553">
        <ele>3</ele>
        <time>2016-07-22T05:22:46Z</time>
      </trkpt>
      <trkpt lat="47.44486" lon="-2.24575">
        <ele>2</ele>
        <time>2016-07-22T05:22:51Z</time>
      </trkpt>
      <trkpt lat="47.44464" lon="-2.24586">
        <ele>2</ele>
        <time>2016-07-22T05:22:56Z</time>
      </trkpt>
      <trkpt lat="47.44444" lon="-2.24604">
        <ele>1</ele>
        <time>2016-07-22T05:23:01Z</time>
      </trkpt>
      <trkpt lat="47.44422" lon="-2.24625">
        <ele>1</ele>
        <time>2016-07-22T05:23:06Z</time>
      </trkpt>
      <trkpt lat="47.44397" lon="-2.24651">
        <ele>1</ele>
        <time>2016-07-22T05:23:12Z</time>
      </trkpt>
      <trkpt lat="47.44372" lon="-2.24671">
        <ele>1</ele>
        <time>2016-07-22T05:23:17Z</time>
      </trkpt>
      <trkpt lat="47.44339" lon="-2.24689">
        <ele>2</ele>
        <time>2016-07-22T05:23:23Z</time>
      </trkpt>
      <trkpt lat="47.44326" lon="-2.24694">
        <ele>3</ele>
        <time>2016-07-22T05:23:26Z</time>
      </trkpt>
      <trkpt lat="47.44291" lon="-2.24699">
        <ele>-1</ele>
        <time>2016-07-22T05:23:31Z</time>
      </trkpt>
      <trkpt lat="47.44241" lon="-2.24703">
        <ele>-4</ele>
        <time>2016-07-22T05:23:40Z</time>
      </trkpt>
      <trkpt lat="47.44233" lon="-2.24705">
        <ele>-1</ele>
        <time>2016-07-22T05:23:42Z</time>
      </trkpt>
      <trkpt lat="47.44215" lon="-2.24705">
        <ele>2</ele>
        <time>2016-07-22T05:23:46Z</time>
      </trkpt>
      <trkpt lat="47.44179" lon="-2.2471">
        <ele>2</ele>
        <time>2016-07-22T05:23:53Z</time>
      </trkpt>
      <trkpt lat="47.44164" lon="-2.24714">
        <ele>4</ele>
        <time>2016-07-22T05:23:56Z</time>
      </trkpt>
      <trkpt lat="47.44138" lon="-2.24715">
        <ele>5</ele>
        <time>2016-07-22T05:24:01Z</time>
      </trkpt>
      <trkpt lat="47.44108" lon="-2.24718">
        <ele>4</ele>
        <time>2016-07-22T05:24:07Z</time>
      </trkpt>
      <trkpt lat="47.44079" lon="-2.24724">
        <ele>5</ele>
        <time>2016-07-22T05:24:12Z</time>
      </trkpt>
      <trkpt lat="47.44058" lon="-2.24725">
        <ele>4</ele>
        <time>2016-07-22T05:24:16Z</time>
      </trkpt>
      <trkpt lat="47.44014" lon="-2.24732">
        <ele>3</ele>
        <time>2016-07-22T05:24:23Z</time>
      </trkpt>
      <trkpt lat="47.43981" lon="-2.24731">
        <ele>1</ele>
        <time>2016-07-22T05:24:29Z</time>
      </trkpt>
      <trkpt lat="47.4397" lon="-2.24733">
        <ele>2</ele>
        <time>2016-07-22T05:24:31Z</time>
      </trkpt>
      <trkpt lat="47.43927" lon="-2.24736">
        <ele>2</ele>
        <time>2016-07-22T05:24:39Z</time>
      </trkpt>
      <trkpt lat="47.43902" lon="-2.24739">
        <ele>3</ele>
        <time>2016-07-22T05:24:43Z</time>
      </trkpt>
      <trkpt lat="47.43879" lon="-2.24741">
        <ele>2</ele>
        <time>2016-07-22T05:24:47Z</time>
      </trkpt>
      <trkpt lat="47.43857" lon="-2.24743">
        <ele>2</ele>
        <time>2016-07-22T05:24:51Z</time>
      </trkpt>
      <trkpt lat="47.43826" lon="-2.24745">
        <ele>4</ele>
        <time>2016-07-22T05:24:57Z</time>
      </trkpt>
      <trkpt lat="47.43804" lon="-2.24748">
        <ele>4</ele>
        <time>2016-07-22T05:25:01Z</time>
      </trkpt>
      <trkpt lat="47.43759" lon="-2.24755">
        <ele>10</ele>
        <time>2016-07-22T05:25:10Z</time>
      </trkpt>
      <trkpt lat="47.43755" lon="-2.24756">
        <ele>10</ele>
        <time>2016-07-22T05:25:11Z</time>
      </trkpt>
      <trkpt lat="47.43726" lon="-2.2476">
        <ele>11</ele>
        <time>2016-07-22T05:25:16Z</time>
      </trkpt>
      <trkpt lat="47.43698" lon="-2.24763">
        <ele>10</ele>
        <time>2016-07-22T05:25:21Z</time>
      </trkpt>
      <trkpt lat="47.43667" lon="-2.24765">
        <ele>10</ele>
        <time>2016-07-22T05:25:26Z</time>
      </trkpt>
      <trkpt lat="47.43637" lon="-2.24765">
        <ele>8</ele>
        <time>2016-07-22T05:25:31Z</time>
      </trkpt>
      <trkpt lat="47.43606" lon="-2.24768">
        <ele>8</ele>
        <time>2016-07-22T05:25:36Z</time>
      </trkpt>
      <trkpt lat="47.43573" lon="-2.24771">
        <ele>8</ele>
        <time>2016-07-22T05:25:42Z</time>
      </trkpt>
      <trkpt lat="47.43549" lon="-2.24775">
        <ele>5</ele>
        <time>2016-07-22T05:25:46Z</time>
      </trkpt>
      <trkpt lat="47.43519" lon="-2.2478">
        <ele>7</ele>
        <time>2016-07-22T05:25:52Z</time>
      </trkpt>
      <trkpt lat="47.43492" lon="-2.24781">
        <ele>9</ele>
        <time>2016-07-22T05:25:57Z</time>
      </trkpt>
      <trkpt lat="47.43468" lon="-2.24779">
        <ele>8</ele>
        <time>2016-07-22T05:26:01Z</time>
      </trkpt>
      <trkpt lat="47.43441" lon="-2.2478">
        <ele>9</ele>
        <time>2016-07-22T05:26:06Z</time>
      </trkpt>
      <trkpt lat="47.43405" lon="-2.24778">
        <ele>6</ele>
        <time>2016-07-22T05:26:12Z</time>
      </trkpt>
      <trkpt lat="47.43388" lon="-2.24777">
        <ele>10</ele>
        <time>2016-07-22T05:26:16Z</time>
      </trkpt>
      <trkpt lat="47.43344" lon="-2.2477">
        <ele>5</ele>
        <time>2016-07-22T05:26:24Z</time>
      </trkpt>
      <trkpt lat="47.43333" lon="-2.24768">
        <ele>4</ele>
        <time>2016-07-22T05:26:26Z</time>
      </trkpt>
      <trkpt lat="47.43288" lon="-2.24751">
        <ele>-1</ele>
        <time>2016-07-22T05:26:34Z</time>
      </trkpt>
      <trkpt lat="47.43277" lon="-2.24748">
        <ele>-1</ele>
        <time>2016-07-22T05:26:36Z</time>
      </trkpt>
      <trkpt lat="47.43233" lon="-2.24739">
        <ele>9</ele>
        <time>2016-07-22T05:26:45Z</time>
      </trkpt>
      <trkpt lat="47.43215" lon="-2.24727">
        <ele>9</ele>
        <time>2016-07-22T05:26:50Z</time>
      </trkpt>
      <trkpt lat="47.43208" lon="-2.24723">
        <ele>9</ele>
        <time>2016-07-22T05:26:51Z</time>
      </trkpt>
      <trkpt lat="47.4318" lon="-2.24708">
        <ele>7</ele>
        <time>2016-07-22T05:26:56Z</time>
      </trkpt>
      <trkpt lat="47.43143" lon="-2.24688">
        <ele>10</ele>
        <time>2016-07-22T05:27:04Z</time>
      </trkpt>
      <trkpt lat="47.43133" lon="-2.24683">
        <ele>9</ele>
        <time>2016-07-22T05:27:06Z</time>
      </trkpt>
      <trkpt lat="47.43097" lon="-2.24659">
        <ele>12</ele>
        <time>2016-07-22T05:27:13Z</time>
      </trkpt>
      <trkpt lat="47.43073" lon="-2.24634">
        <ele>11</ele>
        <time>2016-07-22T05:27:18Z</time>
      </trkpt>
      <trkpt lat="47.43061" lon="-2.24624">
        <ele>13</ele>
        <time>2016-07-22T05:27:21Z</time>
      </trkpt>
      <trkpt lat="47.43038" lon="-2.24603">
        <ele>6</ele>
        <time>2016-07-22T05:27:27Z</time>
      </trkpt>
      <trkpt lat="47.43024" lon="-2.24584">
        <ele>10</ele>
        <time>2016-07-22T05:27:31Z</time>
      </trkpt>
      <trkpt lat="47.42981" lon="-2.24528">
        <ele>11</ele>
        <time>2016-07-22T05:27:40Z</time>
      </trkpt>
      <trkpt lat="47.42964" lon="-2.24499">
        <ele>6</ele>
        <time>2016-07-22T05:27:44Z</time>
      </trkpt>
      <trkpt lat="47.42949" lon="-2.24477">
        <ele>5</ele>
        <time>2016-07-22T05:27:48Z</time>
      </trkpt>
      <trkpt lat="47.42931" lon="-2.24444">
        <ele>5</ele>
        <time>2016-07-22T05:27:53Z</time>
      </trkpt>
      <trkpt lat="47.42906" lon="-2.24395">
        <ele>5</ele>
        <time>2016-07-22T05:28:00Z</time>
      </trkpt>
      <trkpt lat="47.42898" lon="-2.24362">
        <ele>7</ele>
        <time>2016-07-22T05:28:04Z</time>
      </trkpt>
      <trkpt lat="47.42887" lon="-2.24352">
        <ele>5</ele>
        <time>2016-07-22T05:28:06Z</time>
      </trkpt>
      <trkpt lat="47.42859" lon="-2.24296">
        <ele>2</ele>
        <time>2016-07-22T05:28:14Z</time>
      </trkpt>
      <trkpt lat="47.4285" lon="-2.24276">
        <ele>2</ele>
        <time>2016-07-22T05:28:17Z</time>
      </trkpt>
      <trkpt lat="47.42837" lon="-2.24251">
        <ele>4</ele>
        <time>2016-07-22T05:28:21Z</time>
      </trkpt>
      <trkpt lat="47.42822" lon="-2.24221">
        <ele>3</ele>
        <time>2016-07-22T05:28:26Z</time>
      </trkpt>
      <trkpt lat="47.42804" lon="-2.2419">
        <ele>2</ele>
        <time>2016-07-22T05:28:31Z</time>
      </trkpt>
      <trkpt lat="47.42776" lon="-2.24133">
        <ele>3</ele>
        <time>2016-07-22T05:28:40Z</time>
      </trkpt>
      <trkpt lat="47.42766" lon="-2.24112">
        <ele>2</ele>
        <time>2016-07-22T05:28:43Z</time>
      </trkpt>
      <trkpt lat="47.42754" lon="-2.24092">
        <ele>2</ele>
        <time>2016-07-22T05:28:46Z</time>
      </trkpt>
      <trkpt lat="47.42729" lon="-2.24039">
        <ele>3</ele>
        <time>2016-07-22T05:28:54Z</time>
      </trkpt>
      <trkpt lat="47.42719" lon="-2.24018">
        <ele>6</ele>
        <time>2016-07-22T05:28:57Z</time>
      </trkpt>
      <trkpt lat="47.42708" lon="-2.23995">
        <ele>5</ele>
        <time>2016-07-22T05:29:01Z</time>
      </trkpt>
      <trkpt lat="47.42692" lon="-2.23959">
        <ele>3</ele>
        <time>2016-07-22T05:29:06Z</time>
      </trkpt>
      <trkpt lat="47.42674" lon="-2.23933">
        <ele>5</ele>
        <time>2016-07-22T05:29:11Z</time>
      </trkpt>
      <trkpt lat="47.42642" lon="-2.23884">
        <ele>3</ele>
        <time>2016-07-22T05:29:19Z</time>
      </trkpt>
      <trkpt lat="47.42634" lon="-2.23873">
        <ele>2</ele>
        <time>2016-07-22T05:29:21Z</time>
      </trkpt>
      <trkpt lat="47.42613" lon="-2.2385">
        <ele>1</ele>
        <time>2016-07-22T05:29:26Z</time>
      </trkpt>
      <trkpt lat="47.42585" lon="-2.23825">
        <ele>-1</ele>
        <time>2016-07-22T05:29:32Z</time>
      </trkpt>
      <trkpt lat="47.42553" lon="-2.23797">
        <ele>-1</ele>
        <time>2016-07-22T05:29:39Z</time>
      </trkpt>
      <trkpt lat="47.42527" lon="-2.23781">
        <ele>4</ele>
        <time>2016-07-22T05:29:45Z</time>
      </trkpt>
      <trkpt lat="47.42524" lon="-2.23776">
        <ele>5</ele>
        <time>2016-07-22T05:29:46Z</time>
      </trkpt>
      <trkpt lat="47.42481" lon="-2.23747">
        <ele>1</ele>
        <time>2016-07-22T05:29:54Z</time>
      </trkpt>
      <trkpt lat="47.4247" lon="-2.23744">
        <ele>3</ele>
        <time>2016-07-22T05:29:56Z</time>
      </trkpt>
      <trkpt lat="47.42444" lon="-2.23723">
        <ele>-4</ele>
        <time>2016-07-22T05:30:01Z</time>
      </trkpt>
      <trkpt lat="47.42397" lon="-2.23692">
        <ele>-5</ele>
        <time>2016-07-22T05:30:10Z</time>
      </trkpt>
      <trkpt lat="47.42387" lon="-2.23685">
        <ele>-5</ele>
        <time>2016-07-22T05:30:12Z</time>
      </trkpt>
      <trkpt lat="47.4236" lon="-2.23672">
        <ele>-1</ele>
        <time>2016-07-22T05:30:19Z</time>
      </trkpt>
      <trkpt lat="47.42353" lon="-2.23666">
        <ele>2</ele>
        <time>2016-07-22T05:30:21Z</time>
      </trkpt>
      <trkpt lat="47.42325" lon="-2.23651">
        <ele>1</ele>
        <time>2016-07-22T05:30:26Z</time>
      </trkpt>
      <trkpt lat="47.4229" lon="-2.23626">
        <ele>1</ele>
        <time>2016-07-22T05:30:33Z</time>
      </trkpt>
      <trkpt lat="47.42276" lon="-2.23619">
        <ele>5</ele>
        <time>2016-07-22T05:30:36Z</time>
      </trkpt>
      <trkpt lat="47.42239" lon="-2.23596">
        <ele>7</ele>
        <time>2016-07-22T05:30:44Z</time>
      </trkpt>
      <trkpt lat="47.42207" lon="-2.23566">
        <ele>1.7</ele>
        <time>2016-07-22T05:30:50Z</time>
      </trkpt>
      <trkpt lat="47.42196" lon="-2.2356">
        <ele>1</ele>
        <time>2016-07-22T05:30:52Z</time>
      </trkpt>
      <trkpt lat="47.42172" lon="-2.23544">
        <ele>-1</ele>
        <time>2016-07-22T05:30:57Z</time>
      </trkpt>
      <trkpt lat="47.42154" lon="-2.23533">
        <ele>2</ele>
        <time>2016-07-22T05:31:01Z</time>
      </trkpt>
      <trkpt lat="47.42116" lon="-2.23508">
        <ele>4</ele>
        <time>2016-07-22T05:31:09Z</time>
      </trkpt>
      <trkpt lat="47.42105" lon="-2.23502">
        <ele>3</ele>
        <time>2016-07-22T05:31:11Z</time>
      </trkpt>
      <trkpt lat="47.42076" lon="-2.23484">
        <ele>5</ele>
        <time>2016-07-22T05:31:17Z</time>
      </trkpt>
      <trkpt lat="47.4206" lon="-2.23478">
        <ele>9</ele>
        <time>2016-07-22T05:31:21Z</time>
      </trkpt>
      <trkpt lat="47.42035" lon="-2.23459">
        <ele>6</ele>
        <time>2016-07-22T05:31:26Z</time>
      </trkpt>
      <trkpt lat="47.41992" lon="-2.23429">
        <ele>5</ele>
        <time>2016-07-22T05:31:35Z</time>
      </trkpt>
      <trkpt lat="47.41985" lon="-2.23426">
        <ele>4</ele>
        <time>2016-07-22T05:31:36Z</time>
      </trkpt>
      <trkpt lat="47.41946" lon="-2.23405">
        <ele>3</ele>
        <time>2016-07-22T05:31:44Z</time>
      </trkpt>
      <trkpt lat="47.41928" lon="-2.23399">
        <ele>4</ele>
        <time>2016-07-22T05:31:47Z</time>
      </trkpt>
      <trkpt lat="47.41902" lon="-2.23392">
        <ele>2.1</ele>
        <time>2016-07-22T05:31:51Z</time>
      </trkpt>
      <trkpt lat="47.41864" lon="-2.23384">
        <ele>2</ele>
        <time>2016-07-22T05:31:58Z</time>
      </trkpt>
      <trkpt lat="47.4184" lon="-2.23381">
        <ele>3</ele>
        <time>2016-07-22T05:32:02Z</time>
      </trkpt>
      <trkpt lat="47.41821" lon="-2.23381">
        <ele>6</ele>
        <time>2016-07-22T05:32:06Z</time>
      </trkpt>
      <trkpt lat="47.41791" lon="-2.23386">
        <ele>8</ele>
        <time>2016-07-22T05:32:11Z</time>
      </trkpt>
      <trkpt lat="47.41747" lon="-2.23391">
        <ele>3</ele>
        <time>2016-07-22T05:32:18Z</time>
      </trkpt>
      <trkpt lat="47.41734" lon="-2.23382">
        <ele>2</ele>
        <time>2016-07-22T05:32:21Z</time>
      </trkpt>
      <trkpt lat="47.41706" lon="-2.23368">
        <ele>1</ele>
        <time>2016-07-22T05:32:27Z</time>
      </trkpt>
      <trkpt lat="47.41681" lon="-2.23369">
        <ele>1</ele>
        <time>2016-07-22T05:32:32Z</time>
      </trkpt>
      <trkpt lat="47.41641" lon="-2.23369">
        <ele>1</ele>
        <time>2016-07-22T05:32:39Z</time>
      </trkpt>
      <trkpt lat="47.41629" lon="-2.23366">
        <ele>1.9</ele>
        <time>2016-07-22T05:32:41Z</time>
      </trkpt>
      <trkpt lat="47.41601" lon="-2.23367">
        <ele>1</ele>
        <time>2016-07-22T05:32:46Z</time>
      </trkpt>
      <trkpt lat="47.4155" lon="-2.2335">
        <ele>-1</ele>
        <time>2016-07-22T05:32:55Z</time>
      </trkpt>
      <trkpt lat="47.41544" lon="-2.2335">
        <ele>-1</ele>
        <time>2016-07-22T05:32:56Z</time>
      </trkpt>
      <trkpt lat="47.41506" lon="-2.2335">
        <ele>1</ele>
        <time>2016-07-22T05:33:03Z</time>
      </trkpt>
      <trkpt lat="47.41491" lon="-2.23349">
        <ele>1</ele>
        <time>2016-07-22T05:33:06Z</time>
      </trkpt>
      <trkpt lat="47.41465" lon="-2.23346">
        <ele>2</ele>
        <time>2016-07-22T05:33:11Z</time>
      </trkpt>
      <trkpt lat="47.4144" lon="-2.23344">
        <ele>3</ele>
        <time>2016-07-22T05:33:16Z</time>
      </trkpt>
      <trkpt lat="47.41392" lon="-2.23339">
        <ele>5</ele>
        <time>2016-07-22T05:33:25Z</time>
      </trkpt>
      <trkpt lat="47.41382" lon="-2.23337">
        <ele>3</ele>
        <time>2016-07-22T05:33:27Z</time>
      </trkpt>
      <trkpt lat="47.41353" lon="-2.23332">
        <ele>3</ele>
        <time>2016-07-22T05:33:32Z</time>
      </trkpt>
      <trkpt lat="47.41316" lon="-2.23317">
        <ele>2.5</ele>
        <time>2016-07-22T05:33:39Z</time>
      </trkpt>
      <trkpt lat="47.41289" lon="-2.23304">
        <ele>-3</ele>
        <time>2016-07-22T05:33:44Z</time>
      </trkpt>
      <trkpt lat="47.41263" lon="-2.23288">
        <ele>-3</ele>
        <time>2016-07-22T05:33:49Z</time>
      </trkpt>
      <trkpt lat="47.4124" lon="-2.23275">
        <ele>-4</ele>
        <time>2016-07-22T05:33:54Z</time>
      </trkpt>
      <trkpt lat="47.41231" lon="-2.2327">
        <ele>-4</ele>
        <time>2016-07-22T05:33:56Z</time>
      </trkpt>
      <trkpt lat="47.41197" lon="-2.23243">
        <ele>-5</ele>
        <time>2016-07-22T05:34:03Z</time>
      </trkpt>
      <trkpt lat="47.41182" lon="-2.23231">
        <ele>-5</ele>
        <time>2016-07-22T05:34:06Z</time>
      </trkpt>
      <trkpt lat="47.4116" lon="-2.23208">
        <ele>-4</ele>
        <time>2016-07-22T05:34:11Z</time>
      </trkpt>
      <trkpt lat="47.4113" lon="-2.23183">
        <ele>-7</ele>
        <time>2016-07-22T05:34:17Z</time>
      </trkpt>
      <trkpt lat="47.411" lon="-2.23161">
        <ele>-2</ele>
        <time>2016-07-22T05:34:25Z</time>
      </trkpt>
      <trkpt lat="47.41097" lon="-2.2316">
        <ele>2.5</ele>
        <time>2016-07-22T05:34:26Z</time>
      </trkpt>
      <trkpt lat="47.41076" lon="-2.23142">
        <ele>4</ele>
        <time>2016-07-22T05:34:31Z</time>
      </trkpt>
      <trkpt lat="47.41038" lon="-2.23111">
        <ele>3</ele>
        <time>2016-07-22T05:34:40Z</time>
      </trkpt>
      <trkpt lat="47.41028" lon="-2.23109">
        <ele>5</ele>
        <time>2016-07-22T05:34:42Z</time>
      </trkpt>
      <trkpt lat="47.41012" lon="-2.23087">
        <ele>4</ele>
        <time>2016-07-22T05:34:46Z</time>
      </trkpt>
      <trkpt lat="47.40987" lon="-2.2306">
        <ele>3</ele>
        <time>2016-07-22T05:34:51Z</time>
      </trkpt>
      <trkpt lat="47.40956" lon="-2.2303">
        <ele>4</ele>
        <time>2016-07-22T05:34:58Z</time>
      </trkpt>
      <trkpt lat="47.4093" lon="-2.22996">
        <ele>2</ele>
        <time>2016-07-22T05:35:04Z</time>
      </trkpt>
      <trkpt lat="47.40923" lon="-2.22985">
        <ele>2</ele>
        <time>2016-07-22T05:35:06Z</time>
      </trkpt>
      <trkpt lat="47.409" lon="-2.22954">
        <ele>1</ele>
        <time>2016-07-22T05:35:11Z</time>
      </trkpt>
      <trkpt lat="47.40863" lon="-2.22896">
        <ele>-5</ele>
        <time>2016-07-22T05:35:20Z</time>
      </trkpt>
      <trkpt lat="47.40859" lon="-2.22893">
        <ele>-3</ele>
        <time>2016-07-22T05:35:21Z</time>
      </trkpt>
      <trkpt lat="47.4084" lon="-2.22858">
        <ele>-1</ele>
        <time>2016-07-22T05:35:26Z</time>
      </trkpt>
      <trkpt lat="47.40821" lon="-2.22828">
        <ele>4</ele>
        <time>2016-07-22T05:35:31Z</time>
      </trkpt>
      <trkpt lat="47.40802" lon="-2.22793">
        <ele>5</ele>
        <time>2016-07-22T05:35:36Z</time>
      </trkpt>
      <trkpt lat="47.40782" lon="-2.22763">
        <ele>2</ele>
        <time>2016-07-22T05:35:41Z</time>
      </trkpt>
      <trkpt lat="47.40751" lon="-2.22714">
        <ele>2</ele>
        <time>2016-07-22T05:35:49Z</time>
      </trkpt>
      <trkpt lat="47.40743" lon="-2.22701">
        <ele>2</ele>
        <time>2016-07-22T05:35:51Z</time>
      </trkpt>
      <trkpt lat="47.40714" lon="-2.22655">
        <ele>2</ele>
        <time>2016-07-22T05:35:59Z</time>
      </trkpt>
      <trkpt lat="47.40706" lon="-2.22643">
        <ele>1</ele>
        <time>2016-07-22T05:36:01Z</time>
      </trkpt>
      <trkpt lat="47.40686" lon="-2.22613">
        <ele>1</ele>
        <time>2016-07-22T05:36:06Z</time>
      </trkpt>
      <trkpt lat="47.40656" lon="-2.22563">
        <ele>-2</ele>
        <time>2016-07-22T05:36:14Z</time>
      </trkpt>
      <trkpt lat="47.40632" lon="-2.22533">
        <ele>1</ele>
        <time>2016-07-22T05:36:20Z</time>
      </trkpt>
      <trkpt lat="47.40628" lon="-2.22529">
        <ele>1</ele>
        <time>2016-07-22T05:36:21Z</time>
      </trkpt>
      <trkpt lat="47.40598" lon="-2.22492">
        <ele>-1</ele>
        <time>2016-07-22T05:36:29Z</time>
      </trkpt>
      <trkpt lat="47.40583" lon="-2.22468">
        <ele>1.8</ele>
        <time>2016-07-22T05:36:33Z</time>
      </trkpt>
      <trkpt lat="47.40571" lon="-2.22453">
        <ele>2</ele>
        <time>2016-07-22T05:36:36Z</time>
      </trkpt>
      <trkpt lat="47.4055" lon="-2.22416">
        <ele>1</ele>
        <time>2016-07-22T05:36:42Z</time>
      </trkpt>
      <trkpt lat="47.40536" lon="-2.22394">
        <ele>-1</ele>
        <time>2016-07-22T05:36:46Z</time>
      </trkpt>
      <trkpt lat="47.40516" lon="-2.22366">
        <ele>-3</ele>
        <time>2016-07-22T05:36:51Z</time>
      </trkpt>
      <trkpt lat="47.40488" lon="-2.22328">
        <ele>-3</ele>
        <time>2016-07-22T05:36:58Z</time>
      </trkpt>
      <trkpt lat="47.40462" lon="-2.22298">
        <ele>3</ele>
        <time>2016-07-22T05:37:05Z</time>
      </trkpt>
      <trkpt lat="47.4045" lon="-2.2228">
        <ele>5</ele>
        <time>2016-07-22T05:37:08Z</time>
      </trkpt>
      <trkpt lat="47.40437" lon="-2.22262">
        <ele>4</ele>
        <time>2016-07-22T05:37:11Z</time>
      </trkpt>
      <trkpt lat="47.40416" lon="-2.22229">
        <ele>2</ele>
        <time>2016-07-22T05:37:16Z</time>
      </trkpt>
      <trkpt lat="47.40388" lon="-2.22183">
        <ele>3</ele>
        <time>2016-07-22T05:37:24Z</time>
      </trkpt>
      <trkpt lat="47.40376" lon="-2.22164">
        <ele>3</ele>
        <time>2016-07-22T05:37:27Z</time>
      </trkpt>
      <trkpt lat="47.40362" lon="-2.22144">
        <ele>4</ele>
        <time>2016-07-22T05:37:31Z</time>
      </trkpt>
      <trkpt lat="47.40342" lon="-2.22117">
        <ele>3</ele>
        <time>2016-07-22T05:37:36Z</time>
      </trkpt>
      <trkpt lat="47.40323" lon="-2.22092">
        <ele>4</ele>
        <time>2016-07-22T05:37:41Z</time>
      </trkpt>
      <trkpt lat="47.4029" lon="-2.22049">
        <ele>3</ele>
        <time>2016-07-22T05:37:49Z</time>
      </trkpt>
      <trkpt lat="47.40274" lon="-2.22026">
        <ele>3</ele>
        <time>2016-07-22T05:37:53Z</time>
      </trkpt>
      <trkpt lat="47.40262" lon="-2.22013">
        <ele>2</ele>
        <time>2016-07-22T05:37:56Z</time>
      </trkpt>
      <trkpt lat="47.40239" lon="-2.21993">
        <ele>2</ele>
        <time>2016-07-22T05:38:01Z</time>
      </trkpt>
      <trkpt lat="47.40195" lon="-2.21969">
        <ele>2</ele>
        <time>2016-07-22T05:38:10Z</time>
      </trkpt>
      <trkpt lat="47.40185" lon="-2.21965">
        <ele>2</ele>
        <time>2016-07-22T05:38:12Z</time>
      </trkpt>
      <trkpt lat="47.40165" lon="-2.21957">
        <ele>3</ele>
        <time>2016-07-22T05:38:16Z</time>
      </trkpt>
      <trkpt lat="47.40136" lon="-2.21946">
        <ele>5</ele>
        <time>2016-07-22T05:38:23Z</time>
      </trkpt>
      <trkpt lat="47.4012" lon="-2.21941">
        <ele>3</ele>
        <time>2016-07-22T05:38:26Z</time>
      </trkpt>
      <trkpt lat="47.40093" lon="-2.21935">
        <ele>4</ele>
        <time>2016-07-22T05:38:31Z</time>
      </trkpt>
      <trkpt lat="47.4005" lon="-2.21927">
        <ele>9</ele>
        <time>2016-07-22T05:38:40Z</time>
      </trkpt>
      <trkpt lat="47.40038" lon="-2.21919">
        <ele>6</ele>
        <time>2016-07-22T05:38:42Z</time>
      </trkpt>
      <trkpt lat="47.40013" lon="-2.2191">
        <ele>6</ele>
        <time>2016-07-22T05:38:47Z</time>
      </trkpt>
      <trkpt lat="47.39969" lon="-2.21898">
        <ele>5</ele>
        <time>2016-07-22T05:38:55Z</time>
      </trkpt>
      <trkpt lat="47.39949" lon="-2.2189">
        <ele>-1</ele>
        <time>2016-07-22T05:38:59Z</time>
      </trkpt>
      <trkpt lat="47.39923" lon="-2.21881">
        <ele>-1</ele>
        <time>2016-07-22T05:39:04Z</time>
      </trkpt>
      <trkpt lat="47.39913" lon="-2.21878">
        <ele>-1</ele>
        <time>2016-07-22T05:39:06Z</time>
      </trkpt>
      <trkpt lat="47.39888" lon="-2.21871">
        <ele>-1</ele>
        <time>2016-07-22T05:39:11Z</time>
      </trkpt>
      <trkpt lat="47.39863" lon="-2.21863">
        <ele>2.8</ele>
        <time>2016-07-22T05:39:16Z</time>
      </trkpt>
      <trkpt lat="47.39838" lon="-2.21859">
        <ele>3</ele>
        <time>2016-07-22T05:39:21Z</time>
      </trkpt>
      <trkpt lat="47.39796" lon="-2.21844">
        <ele>4</ele>
        <time>2016-07-22T05:39:29Z</time>
      </trkpt>
      <trkpt lat="47.39785" lon="-2.2184">
        <ele>5</ele>
        <time>2016-07-22T05:39:31Z</time>
      </trkpt>
      <trkpt lat="47.39758" lon="-2.21832">
        <ele>4</ele>
        <time>2016-07-22T05:39:36Z</time>
      </trkpt>
      <trkpt lat="47.39731" lon="-2.21825">
        <ele>5</ele>
        <time>2016-07-22T05:39:41Z</time>
      </trkpt>
      <trkpt lat="47.39695" lon="-2.2181">
        <ele>6</ele>
        <time>2016-07-22T05:39:48Z</time>
      </trkpt>
      <trkpt lat="47.39663" lon="-2.21779">
        <ele>6</ele>
        <time>2016-07-22T05:39:55Z</time>
      </trkpt>
      <trkpt lat="47.39658" lon="-2.21774">
        <ele>6</ele>
        <time>2016-07-22T05:39:56Z</time>
      </trkpt>
      <trkpt lat="47.39635" lon="-2.21748">
        <ele>6</ele>
        <time>2016-07-22T05:40:01Z</time>
      </trkpt>
      <trkpt lat="47.39614" lon="-2.21722">
        <ele>6</ele>
        <time>2016-07-22T05:40:06Z</time>
      </trkpt>
      <trkpt lat="47.39592" lon="-2.21695">
        <ele>6</ele>
        <time>2016-07-22T05:40:11Z</time>
      </trkpt>
      <trkpt lat="47.3957" lon="-2.2167">
        <ele>5</ele>
        <time>2016-07-22T05:40:16Z</time>
      </trkpt>
      <trkpt lat="47.39548" lon="-2.21645">
        <ele>5</ele>
        <time>2016-07-22T05:40:21Z</time>
      </trkpt>
      <trkpt lat="47.39526" lon="-2.21619">
        <ele>6</ele>
        <time>2016-07-22T05:40:26Z</time>
      </trkpt>
      <trkpt lat="47.39504" lon="-2.21592">
        <ele>5</ele>
        <time>2016-07-22T05:40:31Z</time>
      </trkpt>
      <trkpt lat="47.39483" lon="-2.21566">
        <ele>4</ele>
        <time>2016-07-22T05:40:36Z</time>
      </trkpt>
      <trkpt lat="47.39462" lon="-2.21541">
        <ele>4</ele>
        <time>2016-07-22T05:40:41Z</time>
      </trkpt>
      <trkpt lat="47.39444" lon="-2.21518">
        <ele>3</ele>
        <time>2016-07-22T05:40:46Z</time>
      </trkpt>
      <trkpt lat="47.39424" lon="-2.21486">
        <ele>1</ele>
        <time>2016-07-22T05:40:51Z</time>
      </trkpt>
      <trkpt lat="47.39402" lon="-2.2146">
        <ele>2</ele>
        <time>2016-07-22T05:40:56Z</time>
      </trkpt>
      <trkpt lat="47.39375" lon="-2.21426">
        <ele>2</ele>
        <time>2016-07-22T05:41:02Z</time>
      </trkpt>
      <trkpt lat="47.39351" lon="-2.21399">
        <ele>1</ele>
        <time>2016-07-22T05:41:07Z</time>
      </trkpt>
      <trkpt lat="47.39333" lon="-2.21378">
        <ele>1</ele>
        <time>2016-07-22T05:41:11Z</time>
      </trkpt>
      <trkpt lat="47.39308" lon="-2.21348">
        <ele>1</ele>
        <time>2016-07-22T05:41:17Z</time>
      </trkpt>
      <trkpt lat="47.39292" lon="-2.21326">
        <ele>1</ele>
        <time>2016-07-22T05:41:21Z</time>
      </trkpt>
      <trkpt lat="47.39273" lon="-2.21275">
        <ele>1</ele>
        <time>2016-07-22T05:41:28Z</time>
      </trkpt>
      <trkpt lat="47.39261" lon="-2.21219">
        <ele>4</ele>
        <time>2016-07-22T05:41:35Z</time>
      </trkpt>
      <trkpt lat="47.3926" lon="-2.21211">
        <ele>2</ele>
        <time>2016-07-22T05:41:36Z</time>
      </trkpt>
      <trkpt lat="47.39252" lon="-2.21173">
        <ele>3</ele>
        <time>2016-07-22T05:41:41Z</time>
      </trkpt>
      <trkpt lat="47.39242" lon="-2.21136">
        <ele>2</ele>
        <time>2016-07-22T05:41:46Z</time>
      </trkpt>
      <trkpt lat="47.39231" lon="-2.21102">
        <ele>5</ele>
        <time>2016-07-22T05:41:51Z</time>
      </trkpt>
      <trkpt lat="47.39219" lon="-2.21068">
        <ele>5</ele>
        <time>2016-07-22T05:41:56Z</time>
      </trkpt>
      <trkpt lat="47.39208" lon="-2.21034">
        <ele>4</ele>
        <time>2016-07-22T05:42:01Z</time>
      </trkpt>
      <trkpt lat="47.39196" lon="-2.20999">
        <ele>5</ele>
        <time>2016-07-22T05:42:06Z</time>
      </trkpt>
      <trkpt lat="47.39177" lon="-2.20952">
        <ele>6</ele>
        <time>2016-07-22T05:42:13Z</time>
      </trkpt>
      <trkpt lat="47.39166" lon="-2.20919">
        <ele>5</ele>
        <time>2016-07-22T05:42:17Z</time>
      </trkpt>
      <trkpt lat="47.39157" lon="-2.20891">
        <ele>8</ele>
        <time>2016-07-22T05:42:21Z</time>
      </trkpt>
      <trkpt lat="47.39131" lon="-2.20825">
        <ele>6</ele>
        <time>2016-07-22T05:42:30Z</time>
      </trkpt>
      <trkpt lat="47.39128" lon="-2.20818">
        <ele>6</ele>
        <time>2016-07-22T05:42:31Z</time>
      </trkpt>
      <trkpt lat="47.39106" lon="-2.20791">
        <ele>7</ele>
        <time>2016-07-22T05:42:36Z</time>
      </trkpt>
      <trkpt lat="47.39082" lon="-2.20769">
        <ele>5</ele>
        <time>2016-07-22T05:42:41Z</time>
      </trkpt>
      <trkpt lat="47.39063" lon="-2.20743">
        <ele>4</ele>
        <time>2016-07-22T05:42:46Z</time>
      </trkpt>
      <trkpt lat="47.39025" lon="-2.20705">
        <ele>1</ele>
        <time>2016-07-22T05:42:54Z</time>
      </trkpt>
      <trkpt lat="47.39016" lon="-2.20697">
        <ele>1</ele>
        <time>2016-07-22T05:42:56Z</time>
      </trkpt>
      <trkpt lat="47.38992" lon="-2.20676">
        <ele>3</ele>
        <time>2016-07-22T05:43:01Z</time>
      </trkpt>
      <trkpt lat="47.38964" lon="-2.2065">
        <ele>5</ele>
        <time>2016-07-22T05:43:07Z</time>
      </trkpt>
      <trkpt lat="47.38946" lon="-2.20632">
        <ele>4</ele>
        <time>2016-07-22T05:43:11Z</time>
      </trkpt>
      <trkpt lat="47.38921" lon="-2.2061">
        <ele>5</ele>
        <time>2016-07-22T05:43:16Z</time>
      </trkpt>
      <trkpt lat="47.38897" lon="-2.20587">
        <ele>5</ele>
        <time>2016-07-22T05:43:21Z</time>
      </trkpt>
      <trkpt lat="47.38874" lon="-2.20565">
        <ele>6</ele>
        <time>2016-07-22T05:43:26Z</time>
      </trkpt>
      <trkpt lat="47.38852" lon="-2.20544">
        <ele>7</ele>
        <time>2016-07-22T05:43:31Z</time>
      </trkpt>
      <trkpt lat="47.38829" lon="-2.20524">
        <ele>7</ele>
        <time>2016-07-22T05:43:36Z</time>
      </trkpt>
      <trkpt lat="47.38807" lon="-2.20501">
        <ele>5</ele>
        <time>2016-07-22T05:43:41Z</time>
      </trkpt>
      <trkpt lat="47.38783" lon="-2.20479">
        <ele>5</ele>
        <time>2016-07-22T05:43:46Z</time>
      </trkpt>
      <trkpt lat="47.38747" lon="-2.2044">
        <ele>7</ele>
        <time>2016-07-22T05:43:55Z</time>
      </trkpt>
      <trkpt lat="47.38739" lon="-2.20431">
        <ele>6</ele>
        <time>2016-07-22T05:43:57Z</time>
      </trkpt>
      <trkpt lat="47.38721" lon="-2.20416">
        <ele>6</ele>
        <time>2016-07-22T05:44:01Z</time>
      </trkpt>
      <trkpt lat="47.38685" lon="-2.20385">
        <ele>8</ele>
        <time>2016-07-22T05:44:09Z</time>
      </trkpt>
      <trkpt lat="47.38676" lon="-2.20379">
        <ele>8</ele>
        <time>2016-07-22T05:44:11Z</time>
      </trkpt>
      <trkpt lat="47.38653" lon="-2.20361">
        <ele>8</ele>
        <time>2016-07-22T05:44:16Z</time>
      </trkpt>
      <trkpt lat="47.38613" lon="-2.20331">
        <ele>8</ele>
        <time>2016-07-22T05:44:25Z</time>
      </trkpt>
      <trkpt lat="47.3861" lon="-2.20328">
        <ele>8</ele>
        <time>2016-07-22T05:44:26Z</time>
      </trkpt>
      <trkpt lat="47.38594" lon="-2.2032">
        <ele>7</ele>
        <time>2016-07-22T05:44:31Z</time>
      </trkpt>
      <trkpt lat="47.3859" lon="-2.20319">
        <ele>6</ele>
        <time>2016-07-22T05:44:40Z</time>
      </trkpt>
      <trkpt lat="47.3859" lon="-2.20319">
        <ele>6</ele>
        <time>2016-07-22T05:44:41Z</time>
      </trkpt>
    </trkseg>
  </trk>
</gpx>